sensor_id;sensor_type;location;lat;lon;timestamp;P1;durP1;ratioP1;P2;durP2;ratioP2
71353;SDS011;59393;51.652;4.864;2022-11-14T00:00:23;18.30;;;9.15;;
71353;SDS011;59393;51.652;4.864;2022-11-14T00:02:49;17.25;;;8.73;;
71353;SDS011;59393;51.652;4.864;2022-11-14T00:05:15;16.80;;;9.13;;
71353;SDS011;59393;51.652;4.864;2022-11-14T00:07:41;18.65;;;8.90;;
71353;SDS011;59393;51.652;4.864;2022-11-14T00:10:07;16.13;;;8.95;;
71353;SDS011;59393;51.652;4.864;2022-11-14T00:12:33;18.45;;;8.35;;
71353;SDS011;59393;51.652;4.864;2022-11-14T00:14:59;17.63;;;8.93;;
71353;SDS011;59393;51.652;4.864;2022-11-14T00:17:25;15.73;;;8.83;;
71353;SDS011;59393;51.652;4.864;2022-11-14T00:19:51;19.58;;;9.07;;
71353;SDS011;59393;51.652;4.864;2022-11-14T00:22:17;20.42;;;9.38;;
71353;SDS011;59393;51.652;4.864;2022-11-14T00:24:43;20.10;;;8.55;;
71353;SDS011;59393;51.652;4.864;2022-11-14T00:27:09;19.13;;;9.13;;
71353;SDS011;59393;51.652;4.864;2022-11-14T00:29:36;17.48;;;8.88;;
71353;SDS011;59393;51.652;4.864;2022-11-14T00:32:05;19.45;;;9.02;;
71353;SDS011;59393;51.652;4.864;2022-11-14T00:34:31;15.75;;;8.02;;
71353;SDS011;59393;51.652;4.864;2022-11-14T00:36:57;15.13;;;8.02;;
71353;SDS011;59393;51.652;4.864;2022-11-14T00:39:23;16.27;;;7.97;;
71353;SDS011;59393;51.652;4.864;2022-11-14T00:41:49;18.50;;;9.27;;
71353;SDS011;59393;51.652;4.864;2022-11-14T00:44:15;15.75;;;8.00;;
71353;SDS011;59393;51.652;4.864;2022-11-14T00:46:41;18.00;;;8.38;;
71353;SDS011;59393;51.652;4.864;2022-11-14T00:49:07;19.77;;;9.15;;
71353;SDS011;59393;51.652;4.864;2022-11-14T00:51:33;14.17;;;7.87;;
71353;SDS011;59393;51.652;4.864;2022-11-14T00:53:59;17.00;;;7.88;;
71353;SDS011;59393;51.652;4.864;2022-11-14T00:56:25;17.67;;;8.95;;
71353;SDS011;59393;51.652;4.864;2022-11-14T00:58:51;16.65;;;8.48;;
71353;SDS011;59393;51.652;4.864;2022-11-14T01:01:18;16.03;;;8.10;;
71353;SDS011;59393;51.652;4.864;2022-11-14T01:03:48;22.25;;;8.95;;
71353;SDS011;59393;51.652;4.864;2022-11-14T01:06:14;14.65;;;8.07;;
71353;SDS011;59393;51.652;4.864;2022-11-14T01:08:40;16.27;;;8.57;;
71353;SDS011;59393;51.652;4.864;2022-11-14T01:11:11;15.52;;;7.80;;
71353;SDS011;59393;51.652;4.864;2022-11-14T01:13:38;16.83;;;7.53;;
71353;SDS011;59393;51.652;4.864;2022-11-14T01:16:04;17.35;;;7.85;;
71353;SDS011;59393;51.652;4.864;2022-11-14T01:18:30;17.38;;;7.82;;
71353;SDS011;59393;51.652;4.864;2022-11-14T01:20:56;20.05;;;7.38;;
71353;SDS011;59393;51.652;4.864;2022-11-14T01:23:22;17.23;;;8.27;;
71353;SDS011;59393;51.652;4.864;2022-11-14T01:25:48;16.07;;;7.87;;
71353;SDS011;59393;51.652;4.864;2022-11-14T01:28:15;16.75;;;8.63;;
71353;SDS011;59393;51.652;4.864;2022-11-14T01:30:41;13.48;;;7.18;;
71353;SDS011;59393;51.652;4.864;2022-11-14T01:33:08;13.98;;;7.30;;
71353;SDS011;59393;51.652;4.864;2022-11-14T01:35:34;12.53;;;7.47;;
71353;SDS011;59393;51.652;4.864;2022-11-14T01:38:01;16.58;;;7.57;;
71353;SDS011;59393;51.652;4.864;2022-11-14T01:40:27;15.48;;;7.65;;
71353;SDS011;59393;51.652;4.864;2022-11-14T01:45:50;13.60;;;6.65;;
71353;SDS011;59393;51.652;4.864;2022-11-14T01:48:21;20.53;;;7.23;;
71353;SDS011;59393;51.652;4.864;2022-11-14T01:50:49;12.10;;;6.50;;
71353;SDS011;59393;51.652;4.864;2022-11-14T01:53:16;14.43;;;7.43;;
71353;SDS011;59393;51.652;4.864;2022-11-14T01:55:42;12.25;;;6.65;;
71353;SDS011;59393;51.652;4.864;2022-11-14T01:58:08;14.38;;;7.40;;
71353;SDS011;59393;51.652;4.864;2022-11-14T02:00:35;12.88;;;6.60;;
71353;SDS011;59393;51.652;4.864;2022-11-14T02:03:01;13.10;;;7.20;;
71353;SDS011;59393;51.652;4.864;2022-11-14T02:05:27;12.93;;;6.63;;
71353;SDS011;59393;51.652;4.864;2022-11-14T02:07:54;11.60;;;6.50;;
71353;SDS011;59393;51.652;4.864;2022-11-14T02:10:20;15.07;;;7.53;;
71353;SDS011;59393;51.652;4.864;2022-11-14T02:12:46;13.30;;;6.95;;
71353;SDS011;59393;51.652;4.864;2022-11-14T02:15:14;13.25;;;6.10;;
71353;SDS011;59393;51.652;4.864;2022-11-14T02:17:40;11.88;;;6.10;;
71353;SDS011;59393;51.652;4.864;2022-11-14T02:22:37;11.20;;;6.43;;
71353;SDS011;59393;51.652;4.864;2022-11-14T02:25:04;11.40;;;6.53;;
71353;SDS011;59393;51.652;4.864;2022-11-14T02:27:30;11.43;;;6.28;;
71353;SDS011;59393;51.652;4.864;2022-11-14T02:30:07;14.55;;;6.30;;
71353;SDS011;59393;51.652;4.864;2022-11-14T02:32:34;12.32;;;5.85;;
71353;SDS011;59393;51.652;4.864;2022-11-14T02:34:59;16.53;;;6.17;;
71353;SDS011;59393;51.652;4.864;2022-11-14T02:37:25;12.27;;;6.22;;
71353;SDS011;59393;51.652;4.864;2022-11-14T02:39:51;12.38;;;6.55;;
71353;SDS011;59393;51.652;4.864;2022-11-14T02:42:17;12.43;;;6.35;;
71353;SDS011;59393;51.652;4.864;2022-11-14T02:44:43;14.53;;;6.23;;
71353;SDS011;59393;51.652;4.864;2022-11-14T02:47:09;12.20;;;6.57;;
71353;SDS011;59393;51.652;4.864;2022-11-14T02:49:35;14.57;;;6.57;;
71353;SDS011;59393;51.652;4.864;2022-11-14T02:52:01;13.35;;;6.38;;
71353;SDS011;59393;51.652;4.864;2022-11-14T02:54:27;13.97;;;6.37;;
71353;SDS011;59393;51.652;4.864;2022-11-14T02:56:53;12.80;;;5.95;;
71353;SDS011;59393;51.652;4.864;2022-11-14T02:59:19;14.02;;;6.55;;
71353;SDS011;59393;51.652;4.864;2022-11-14T03:01:45;13.80;;;6.05;;
71353;SDS011;59393;51.652;4.864;2022-11-14T03:04:11;15.00;;;6.22;;
71353;SDS011;59393;51.652;4.864;2022-11-14T03:06:37;11.70;;;5.40;;
71353;SDS011;59393;51.652;4.864;2022-11-14T03:09:03;11.77;;;6.15;;
71353;SDS011;59393;51.652;4.864;2022-11-14T03:11:29;12.45;;;6.28;;
71353;SDS011;59393;51.652;4.864;2022-11-14T03:13:55;13.98;;;5.78;;
71353;SDS011;59393;51.652;4.864;2022-11-14T03:16:21;12.53;;;6.50;;
71353;SDS011;59393;51.652;4.864;2022-11-14T03:18:47;11.23;;;5.57;;
71353;SDS011;59393;51.652;4.864;2022-11-14T03:21:14;13.25;;;5.78;;
71353;SDS011;59393;51.652;4.864;2022-11-14T03:23:41;14.88;;;6.60;;
71353;SDS011;59393;51.652;4.864;2022-11-14T03:26:07;13.37;;;5.93;;
71353;SDS011;59393;51.652;4.864;2022-11-14T03:28:33;12.10;;;5.60;;
71353;SDS011;59393;51.652;4.864;2022-11-14T03:31:00;15.07;;;6.10;;
71353;SDS011;59393;51.652;4.864;2022-11-14T03:33:26;13.48;;;5.78;;
71353;SDS011;59393;51.652;4.864;2022-11-14T03:35:52;12.75;;;5.50;;
71353;SDS011;59393;51.652;4.864;2022-11-14T03:38:18;10.13;;;5.47;;
71353;SDS011;59393;51.652;4.864;2022-11-14T03:40:47;14.13;;;6.20;;
71353;SDS011;59393;51.652;4.864;2022-11-14T03:43:14;13.00;;;5.25;;
71353;SDS011;59393;51.652;4.864;2022-11-14T03:45:40;10.25;;;5.35;;
71353;SDS011;59393;51.652;4.864;2022-11-14T03:48:07;11.10;;;5.82;;
71353;SDS011;59393;51.652;4.864;2022-11-14T03:50:33;12.93;;;5.80;;
71353;SDS011;59393;51.652;4.864;2022-11-14T03:52:59;11.38;;;5.30;;
71353;SDS011;59393;51.652;4.864;2022-11-14T03:55:25;10.07;;;5.60;;
71353;SDS011;59393;51.652;4.864;2022-11-14T03:57:51;12.00;;;5.45;;
71353;SDS011;59393;51.652;4.864;2022-11-14T04:00:17;11.27;;;5.47;;
71353;SDS011;59393;51.652;4.864;2022-11-14T04:02:43;11.13;;;5.47;;
71353;SDS011;59393;51.652;4.864;2022-11-14T04:05:09;14.07;;;5.22;;
71353;SDS011;59393;51.652;4.864;2022-11-14T04:07:35;9.90;;;4.97;;
71353;SDS011;59393;51.652;4.864;2022-11-14T04:10:01;11.90;;;5.65;;
71353;SDS011;59393;51.652;4.864;2022-11-14T04:12:27;12.60;;;5.32;;
71353;SDS011;59393;51.652;4.864;2022-11-14T04:14:53;13.73;;;5.70;;
71353;SDS011;59393;51.652;4.864;2022-11-14T04:17:19;10.38;;;5.47;;
71353;SDS011;59393;51.652;4.864;2022-11-14T04:19:45;11.70;;;5.93;;
71353;SDS011;59393;51.652;4.864;2022-11-14T04:22:11;12.13;;;5.70;;
71353;SDS011;59393;51.652;4.864;2022-11-14T04:24:37;9.95;;;5.10;;
71353;SDS011;59393;51.652;4.864;2022-11-14T04:27:03;10.88;;;5.32;;
71353;SDS011;59393;51.652;4.864;2022-11-14T04:29:29;11.90;;;5.50;;
71353;SDS011;59393;51.652;4.864;2022-11-14T04:31:55;11.20;;;5.07;;
71353;SDS011;59393;51.652;4.864;2022-11-14T04:34:21;8.80;;;4.70;;
71353;SDS011;59393;51.652;4.864;2022-11-14T04:36:47;10.18;;;5.22;;
71353;SDS011;59393;51.652;4.864;2022-11-14T04:39:15;11.02;;;5.00;;
71353;SDS011;59393;51.652;4.864;2022-11-14T04:41:41;11.70;;;5.10;;
71353;SDS011;59393;51.652;4.864;2022-11-14T04:44:07;12.13;;;4.80;;
71353;SDS011;59393;51.652;4.864;2022-11-14T04:46:33;12.63;;;5.80;;
71353;SDS011;59393;51.652;4.864;2022-11-14T04:48:59;12.45;;;5.00;;
71353;SDS011;59393;51.652;4.864;2022-11-14T04:51:25;10.40;;;4.93;;
71353;SDS011;59393;51.652;4.864;2022-11-14T04:53:51;15.23;;;4.97;;
71353;SDS011;59393;51.652;4.864;2022-11-14T04:56:17;12.90;;;4.70;;
71353;SDS011;59393;51.652;4.864;2022-11-14T04:58:43;10.32;;;5.25;;
71353;SDS011;59393;51.652;4.864;2022-11-14T05:01:09;11.23;;;5.50;;
71353;SDS011;59393;51.652;4.864;2022-11-14T05:03:36;11.85;;;5.00;;
71353;SDS011;59393;51.652;4.864;2022-11-14T05:06:02;11.93;;;4.78;;
71353;SDS011;59393;51.652;4.864;2022-11-14T05:08:28;13.68;;;5.30;;
71353;SDS011;59393;51.652;4.864;2022-11-14T05:10:54;9.90;;;4.55;;
71353;SDS011;59393;51.652;4.864;2022-11-14T05:13:21;11.70;;;5.30;;
71353;SDS011;59393;51.652;4.864;2022-11-14T05:15:47;11.38;;;4.95;;
71353;SDS011;59393;51.652;4.864;2022-11-14T05:18:13;10.48;;;5.32;;
71353;SDS011;59393;51.652;4.864;2022-11-14T05:20:39;9.23;;;4.22;;
71353;SDS011;59393;51.652;4.864;2022-11-14T05:23:05;10.88;;;5.03;;
71353;SDS011;59393;51.652;4.864;2022-11-14T05:25:31;12.48;;;4.70;;
71353;SDS011;59393;51.652;4.864;2022-11-14T05:27:57;16.40;;;5.40;;
71353;SDS011;59393;51.652;4.864;2022-11-14T05:30:23;12.13;;;5.20;;
71353;SDS011;59393;51.652;4.864;2022-11-14T05:32:52;10.65;;;4.50;;
71353;SDS011;59393;51.652;4.864;2022-11-14T05:35:18;9.63;;;4.78;;
71353;SDS011;59393;51.652;4.864;2022-11-14T05:37:44;10.63;;;4.82;;
71353;SDS011;59393;51.652;4.864;2022-11-14T05:40:10;11.82;;;5.00;;
71353;SDS011;59393;51.652;4.864;2022-11-14T05:42:36;10.02;;;4.50;;
71353;SDS011;59393;51.652;4.864;2022-11-14T05:45:02;10.87;;;5.07;;
71353;SDS011;59393;51.652;4.864;2022-11-14T05:47:28;11.88;;;4.70;;
71353;SDS011;59393;51.652;4.864;2022-11-14T05:49:54;13.90;;;4.70;;
71353;SDS011;59393;51.652;4.864;2022-11-14T05:52:20;11.32;;;5.13;;
71353;SDS011;59393;51.652;4.864;2022-11-14T05:54:46;13.43;;;4.90;;
71353;SDS011;59393;51.652;4.864;2022-11-14T05:57:12;11.73;;;5.00;;
71353;SDS011;59393;51.652;4.864;2022-11-14T05:59:38;12.55;;;5.00;;
71353;SDS011;59393;51.652;4.864;2022-11-14T06:02:04;10.45;;;5.25;;
71353;SDS011;59393;51.652;4.864;2022-11-14T06:04:30;10.00;;;4.40;;
71353;SDS011;59393;51.652;4.864;2022-11-14T06:06:56;10.30;;;4.95;;
71353;SDS011;59393;51.652;4.864;2022-11-14T06:09:22;9.48;;;4.43;;
71353;SDS011;59393;51.652;4.864;2022-11-14T06:11:48;8.93;;;4.28;;
71353;SDS011;59393;51.652;4.864;2022-11-14T06:14:14;10.60;;;5.13;;
71353;SDS011;59393;51.652;4.864;2022-11-14T06:16:40;9.57;;;4.50;;
71353;SDS011;59393;51.652;4.864;2022-11-14T06:19:06;12.32;;;5.30;;
71353;SDS011;59393;51.652;4.864;2022-11-14T06:21:32;12.70;;;4.75;;
71353;SDS011;59393;51.652;4.864;2022-11-14T06:23:58;10.02;;;4.35;;
71353;SDS011;59393;51.652;4.864;2022-11-14T06:26:25;14.43;;;5.40;;
71353;SDS011;59393;51.652;4.864;2022-11-14T06:28:54;11.65;;;5.75;;
71353;SDS011;59393;51.652;4.864;2022-11-14T06:31:20;10.52;;;4.65;;
71353;SDS011;59393;51.652;4.864;2022-11-14T06:33:46;11.85;;;4.68;;
71353;SDS011;59393;51.652;4.864;2022-11-14T06:36:12;13.07;;;5.20;;
71353;SDS011;59393;51.652;4.864;2022-11-14T06:38:39;11.53;;;4.27;;
71353;SDS011;59393;51.652;4.864;2022-11-14T06:43:40;15.57;;;5.28;;
71353;SDS011;59393;51.652;4.864;2022-11-14T06:46:07;13.10;;;4.85;;
71353;SDS011;59393;51.652;4.864;2022-11-14T06:48:34;13.80;;;4.78;;
71353;SDS011;59393;51.652;4.864;2022-11-14T06:51:00;11.73;;;4.83;;
71353;SDS011;59393;51.652;4.864;2022-11-14T06:53:27;9.50;;;4.65;;
71353;SDS011;59393;51.652;4.864;2022-11-14T06:56:00;12.13;;;4.28;;
71353;SDS011;59393;51.652;4.864;2022-11-14T06:58:37;9.68;;;4.15;;
71353;SDS011;59393;51.652;4.864;2022-11-14T07:01:03;11.65;;;5.07;;
71353;SDS011;59393;51.652;4.864;2022-11-14T07:03:30;12.33;;;4.53;;
71353;SDS011;59393;51.652;4.864;2022-11-14T07:06:02;9.93;;;4.80;;
71353;SDS011;59393;51.652;4.864;2022-11-14T07:08:29;11.77;;;4.35;;
71353;SDS011;59393;51.652;4.864;2022-11-14T07:11:02;10.73;;;4.80;;
71353;SDS011;59393;51.652;4.864;2022-11-14T07:13:28;10.02;;;4.25;;
71353;SDS011;59393;51.652;4.864;2022-11-14T07:15:55;10.17;;;4.67;;
71353;SDS011;59393;51.652;4.864;2022-11-14T07:18:21;8.98;;;4.47;;
71353;SDS011;59393;51.652;4.864;2022-11-14T07:20:47;11.23;;;4.68;;
71353;SDS011;59393;51.652;4.864;2022-11-14T07:23:13;10.07;;;4.40;;
71353;SDS011;59393;51.652;4.864;2022-11-14T07:25:39;12.00;;;4.87;;
71353;SDS011;59393;51.652;4.864;2022-11-14T07:28:05;14.43;;;6.05;;
71353;SDS011;59393;51.652;4.864;2022-11-14T07:30:32;11.02;;;5.40;;
71353;SDS011;59393;51.652;4.864;2022-11-14T07:32:58;12.20;;;5.78;;
71353;SDS011;59393;51.652;4.864;2022-11-14T07:35:24;13.00;;;5.90;;
71353;SDS011;59393;51.652;4.864;2022-11-14T07:37:50;13.00;;;5.63;;
71353;SDS011;59393;51.652;4.864;2022-11-14T07:40:17;12.98;;;5.97;;
71353;SDS011;59393;51.652;4.864;2022-11-14T07:42:43;13.00;;;5.47;;
71353;SDS011;59393;51.652;4.864;2022-11-14T07:45:09;12.73;;;6.63;;
71353;SDS011;59393;51.652;4.864;2022-11-14T07:47:38;16.97;;;6.47;;
71353;SDS011;59393;51.652;4.864;2022-11-14T07:50:04;16.65;;;7.75;;
71353;SDS011;59393;51.652;4.864;2022-11-14T07:52:36;12.18;;;5.80;;
71353;SDS011;59393;51.652;4.864;2022-11-14T07:55:02;10.95;;;5.90;;
71353;SDS011;59393;51.652;4.864;2022-11-14T07:57:29;16.42;;;6.78;;
71353;SDS011;59393;51.652;4.864;2022-11-14T07:59:55;17.93;;;6.60;;
71353;SDS011;59393;51.652;4.864;2022-11-14T08:02:21;15.80;;;7.00;;
71353;SDS011;59393;51.652;4.864;2022-11-14T08:04:47;20.45;;;7.63;;
71353;SDS011;59393;51.652;4.864;2022-11-14T08:07:13;14.05;;;7.18;;
71353;SDS011;59393;51.652;4.864;2022-11-14T08:09:39;18.13;;;7.00;;
71353;SDS011;59393;51.652;4.864;2022-11-14T08:12:05;13.10;;;6.10;;
71353;SDS011;59393;51.652;4.864;2022-11-14T08:14:31;12.45;;;5.85;;
71353;SDS011;59393;51.652;4.864;2022-11-14T08:17:00;13.38;;;6.80;;
71353;SDS011;59393;51.652;4.864;2022-11-14T08:19:26;15.38;;;6.82;;
71353;SDS011;59393;51.652;4.864;2022-11-14T08:21:55;14.52;;;6.75;;
71353;SDS011;59393;51.652;4.864;2022-11-14T08:24:22;14.07;;;7.10;;
71353;SDS011;59393;51.652;4.864;2022-11-14T08:26:48;15.63;;;7.05;;
71353;SDS011;59393;51.652;4.864;2022-11-14T08:29:22;11.07;;;5.75;;
71353;SDS011;59393;51.652;4.864;2022-11-14T08:31:48;15.27;;;6.82;;
71353;SDS011;59393;51.652;4.864;2022-11-14T08:34:17;20.13;;;6.85;;
71353;SDS011;59393;51.652;4.864;2022-11-14T08:36:43;14.50;;;6.07;;
71353;SDS011;59393;51.652;4.864;2022-11-14T08:39:09;19.05;;;6.85;;
71353;SDS011;59393;51.652;4.864;2022-11-14T08:41:35;13.70;;;7.10;;
71353;SDS011;59393;51.652;4.864;2022-11-14T08:44:01;16.13;;;7.30;;
71353;SDS011;59393;51.652;4.864;2022-11-14T08:46:27;20.45;;;6.47;;
71353;SDS011;59393;51.652;4.864;2022-11-14T08:48:53;13.20;;;7.67;;
71353;SDS011;59393;51.652;4.864;2022-11-14T08:51:19;20.85;;;9.40;;
71353;SDS011;59393;51.652;4.864;2022-11-14T08:53:45;15.65;;;7.60;;
71353;SDS011;59393;51.652;4.864;2022-11-14T08:56:11;19.40;;;8.13;;
71353;SDS011;59393;51.652;4.864;2022-11-14T08:58:37;15.10;;;7.43;;
71353;SDS011;59393;51.652;4.864;2022-11-14T09:01:04;16.65;;;7.45;;
71353;SDS011;59393;51.652;4.864;2022-11-14T09:03:31;20.25;;;8.98;;
71353;SDS011;59393;51.652;4.864;2022-11-14T09:05:57;26.45;;;12.93;;
71353;SDS011;59393;51.652;4.864;2022-11-14T09:08:23;18.13;;;8.07;;
71353;SDS011;59393;51.652;4.864;2022-11-14T09:10:52;18.50;;;9.40;;
71353;SDS011;59393;51.652;4.864;2022-11-14T09:13:18;20.58;;;9.43;;
71353;SDS011;59393;51.652;4.864;2022-11-14T09:15:44;17.67;;;9.43;;
71353;SDS011;59393;51.652;4.864;2022-11-14T09:18:14;17.38;;;8.27;;
71353;SDS011;59393;51.652;4.864;2022-11-14T09:20:40;15.88;;;7.85;;
71353;SDS011;59393;51.652;4.864;2022-11-14T09:23:06;18.47;;;8.10;;
71353;SDS011;59393;51.652;4.864;2022-11-14T09:25:32;14.85;;;7.28;;
71353;SDS011;59393;51.652;4.864;2022-11-14T09:28:01;16.15;;;8.82;;
71353;SDS011;59393;51.652;4.864;2022-11-14T09:30:27;16.08;;;7.15;;
71353;SDS011;59393;51.652;4.864;2022-11-14T09:32:56;14.10;;;7.38;;
71353;SDS011;59393;51.652;4.864;2022-11-14T09:35:23;13.17;;;7.10;;
71353;SDS011;59393;51.652;4.864;2022-11-14T09:37:49;14.90;;;7.45;;
71353;SDS011;59393;51.652;4.864;2022-11-14T09:40:17;19.73;;;7.78;;
71353;SDS011;59393;51.652;4.864;2022-11-14T09:43:04;19.73;;;8.32;;
71353;SDS011;59393;51.652;4.864;2022-11-14T09:45:34;18.98;;;7.82;;
71353;SDS011;59393;51.652;4.864;2022-11-14T09:48:15;17.87;;;7.67;;
71353;SDS011;59393;51.652;4.864;2022-11-14T09:50:44;14.18;;;7.50;;
71353;SDS011;59393;51.652;4.864;2022-11-14T09:56:13;17.75;;;8.70;;
71353;SDS011;59393;51.652;4.864;2022-11-14T09:58:40;16.63;;;8.05;;
71353;SDS011;59393;51.652;4.864;2022-11-14T10:03:40;19.00;;;9.57;;
71353;SDS011;59393;51.652;4.864;2022-11-14T10:11:35;19.73;;;10.05;;
71353;SDS011;59393;51.652;4.864;2022-11-14T10:19:12;18.85;;;10.68;;
71353;SDS011;59393;51.652;4.864;2022-11-14T10:26:32;18.92;;;9.20;;
71353;SDS011;59393;51.652;4.864;2022-11-14T10:36:56;22.87;;;11.10;;
71353;SDS011;59393;51.652;4.864;2022-11-14T10:39:33;24.60;;;11.15;;
71353;SDS011;59393;51.652;4.864;2022-11-14T10:42:01;19.20;;;10.00;;
71353;SDS011;59393;51.652;4.864;2022-11-14T10:44:30;16.83;;;7.57;;
71353;SDS011;59393;51.652;4.864;2022-11-14T10:47:02;17.67;;;9.20;;
71353;SDS011;59393;51.652;4.864;2022-11-14T10:49:30;18.23;;;8.97;;
71353;SDS011;59393;51.652;4.864;2022-11-14T10:51:58;18.17;;;9.32;;
71353;SDS011;59393;51.652;4.864;2022-11-14T10:54:31;20.63;;;10.88;;
71353;SDS011;59393;51.652;4.864;2022-11-14T10:56:58;23.67;;;11.07;;
71353;SDS011;59393;51.652;4.864;2022-11-14T10:59:27;16.50;;;9.07;;
71353;SDS011;59393;51.652;4.864;2022-11-14T11:01:57;20.40;;;9.57;;
71353;SDS011;59393;51.652;4.864;2022-11-14T11:04:27;16.73;;;8.48;;
71353;SDS011;59393;51.652;4.864;2022-11-14T11:10:01;22.10;;;10.57;;
71353;SDS011;59393;51.652;4.864;2022-11-14T11:12:46;21.80;;;10.23;;
71353;SDS011;59393;51.652;4.864;2022-11-14T11:15:22;17.83;;;10.27;;
71353;SDS011;59393;51.652;4.864;2022-11-14T11:18:02;20.35;;;8.95;;
71353;SDS011;59393;51.652;4.864;2022-11-14T11:20:33;19.48;;;10.45;;
71353;SDS011;59393;51.652;4.864;2022-11-14T11:23:20;19.02;;;10.15;;
71353;SDS011;59393;51.652;4.864;2022-11-14T11:25:52;18.75;;;10.07;;
71353;SDS011;59393;51.652;4.864;2022-11-14T11:28:23;19.97;;;11.00;;
71353;SDS011;59393;51.652;4.864;2022-11-14T11:30:56;19.75;;;10.77;;
71353;SDS011;59393;51.652;4.864;2022-11-14T11:33:23;19.35;;;9.00;;
71353;SDS011;59393;51.652;4.864;2022-11-14T11:35:54;16.58;;;8.88;;
71353;SDS011;59393;51.652;4.864;2022-11-14T11:38:22;15.15;;;8.90;;
71353;SDS011;59393;51.652;4.864;2022-11-14T11:40:50;20.43;;;9.50;;
71353;SDS011;59393;51.652;4.864;2022-11-14T11:46:03;17.08;;;9.45;;
71353;SDS011;59393;51.652;4.864;2022-11-14T11:48:36;18.95;;;9.68;;
71353;SDS011;59393;51.652;4.864;2022-11-14T11:51:03;21.00;;;11.00;;
71353;SDS011;59393;51.652;4.864;2022-11-14T11:53:37;18.53;;;9.73;;
71353;SDS011;59393;51.652;4.864;2022-11-14T11:56:05;18.10;;;8.35;;
71353;SDS011;59393;51.652;4.864;2022-11-14T12:01:03;16.25;;;8.25;;
71353;SDS011;59393;51.652;4.864;2022-11-14T12:03:29;18.10;;;8.18;;
71353;SDS011;59393;51.652;4.864;2022-11-14T12:11:14;18.27;;;9.27;;
71353;SDS011;59393;51.652;4.864;2022-11-14T12:16:14;17.30;;;10.55;;
71353;SDS011;59393;51.652;4.864;2022-11-14T12:18:50;19.40;;;9.95;;
71353;SDS011;59393;51.652;4.864;2022-11-14T12:32:05;17.10;;;9.27;;
71353;SDS011;59393;51.652;4.864;2022-11-14T12:36:59;15.00;;;8.77;;
71353;SDS011;59393;51.652;4.864;2022-11-14T12:39:26;16.73;;;8.98;;
71353;SDS011;59393;51.652;4.864;2022-11-14T12:42:05;17.07;;;9.03;;
71353;SDS011;59393;51.652;4.864;2022-11-14T12:44:34;18.00;;;9.90;;
71353;SDS011;59393;51.652;4.864;2022-11-14T12:52:00;23.35;;;9.82;;
71353;SDS011;59393;51.652;4.864;2022-11-14T12:57:08;14.75;;;8.30;;
71353;SDS011;59393;51.652;4.864;2022-11-14T12:59:58;16.80;;;8.40;;
71353;SDS011;59393;51.652;4.864;2022-11-14T13:10:29;17.15;;;8.15;;
71353;SDS011;59393;51.652;4.864;2022-11-14T13:12:57;16.45;;;8.57;;
71353;SDS011;59393;51.652;4.864;2022-11-14T13:18:30;17.42;;;8.68;;
71353;SDS011;59393;51.652;4.864;2022-11-14T13:24:02;15.10;;;8.45;;
71353;SDS011;59393;51.652;4.864;2022-11-14T13:28:54;15.18;;;8.25;;
71353;SDS011;59393;51.652;4.864;2022-11-14T13:36:58;13.63;;;7.68;;
71353;SDS011;59393;51.652;4.864;2022-11-14T13:39:41;16.20;;;7.22;;
71353;SDS011;59393;51.652;4.864;2022-11-14T13:47:40;13.80;;;8.67;;
71353;SDS011;59393;51.652;4.864;2022-11-14T13:52:41;17.58;;;7.43;;
71353;SDS011;59393;51.652;4.864;2022-11-14T13:55:15;14.55;;;7.22;;
71353;SDS011;59393;51.652;4.864;2022-11-14T14:00:28;15.00;;;6.80;;
71353;SDS011;59393;51.652;4.864;2022-11-14T14:16:50;15.05;;;8.18;;
71353;SDS011;59393;51.652;4.864;2022-11-14T14:18:57;18.63;;;7.85;;
71353;SDS011;59393;51.652;4.864;2022-11-14T14:29:44;16.30;;;7.63;;
71353;SDS011;59393;51.652;4.864;2022-11-14T14:32:14;16.80;;;8.35;;
71353;SDS011;59393;51.652;4.864;2022-11-14T14:34:40;17.55;;;7.28;;
71353;SDS011;59393;51.652;4.864;2022-11-14T14:37:20;18.70;;;7.23;;
71353;SDS011;59393;51.652;4.864;2022-11-14T14:39:59;16.70;;;6.85;;
71353;SDS011;59393;51.652;4.864;2022-11-14T14:42:46;14.52;;;6.63;;
71353;SDS011;59393;51.652;4.864;2022-11-14T14:45:14;14.77;;;5.68;;
71353;SDS011;59393;51.652;4.864;2022-11-14T14:47:41;17.65;;;8.43;;
71353;SDS011;59393;51.652;4.864;2022-11-14T14:52:40;14.98;;;6.57;;
71353;SDS011;59393;51.652;4.864;2022-11-14T14:55:07;14.38;;;7.05;;
71353;SDS011;59393;51.652;4.864;2022-11-14T14:57:42;12.32;;;6.18;;
71353;SDS011;59393;51.652;4.864;2022-11-14T15:00:21;15.02;;;7.18;;
71353;SDS011;59393;51.652;4.864;2022-11-14T15:02:50;15.65;;;7.40;;
71353;SDS011;59393;51.652;4.864;2022-11-14T15:05:26;13.02;;;6.90;;
71353;SDS011;59393;51.652;4.864;2022-11-14T15:07:54;15.98;;;7.50;;
71353;SDS011;59393;51.652;4.864;2022-11-14T15:10:22;13.80;;;7.75;;
71353;SDS011;59393;51.652;4.864;2022-11-14T15:12:48;17.07;;;7.67;;
71353;SDS011;59393;51.652;4.864;2022-11-14T15:15:15;16.63;;;8.27;;
71353;SDS011;59393;51.652;4.864;2022-11-14T15:17:41;14.73;;;7.65;;
71353;SDS011;59393;51.652;4.864;2022-11-14T15:20:19;17.98;;;7.93;;
71353;SDS011;59393;51.652;4.864;2022-11-14T15:25:31;17.40;;;9.53;;
71353;SDS011;59393;51.652;4.864;2022-11-14T15:27:57;19.90;;;10.52;;
71353;SDS011;59393;51.652;4.864;2022-11-14T15:30:28;23.30;;;10.25;;
71353;SDS011;59393;51.652;4.864;2022-11-14T15:32:59;20.25;;;9.05;;
71353;SDS011;59393;51.652;4.864;2022-11-14T15:35:26;23.00;;;10.30;;
71353;SDS011;59393;51.652;4.864;2022-11-14T15:40:25;22.45;;;11.30;;
71353;SDS011;59393;51.652;4.864;2022-11-14T15:42:51;22.02;;;11.45;;
71353;SDS011;59393;51.652;4.864;2022-11-14T15:45:21;22.02;;;11.75;;
71353;SDS011;59393;51.652;4.864;2022-11-14T15:47:47;19.35;;;9.90;;
71353;SDS011;59393;51.652;4.864;2022-11-14T15:52:47;21.45;;;9.90;;
71353;SDS011;59393;51.652;4.864;2022-11-14T15:55:18;18.45;;;10.23;;
71353;SDS011;59393;51.652;4.864;2022-11-14T15:57:44;18.88;;;9.57;;
71353;SDS011;59393;51.652;4.864;2022-11-14T16:00:10;23.60;;;11.80;;
71353;SDS011;59393;51.652;4.864;2022-11-14T16:02:40;19.67;;;10.40;;
71353;SDS011;59393;51.652;4.864;2022-11-14T16:05:10;23.65;;;9.90;;
71353;SDS011;59393;51.652;4.864;2022-11-14T16:07:36;25.30;;;10.80;;
71353;SDS011;59393;51.652;4.864;2022-11-14T16:10:02;22.05;;;11.40;;
71353;SDS011;59393;51.652;4.864;2022-11-14T16:12:28;24.48;;;10.73;;
71353;SDS011;59393;51.652;4.864;2022-11-14T16:14:54;17.63;;;9.33;;
71353;SDS011;59393;51.652;4.864;2022-11-14T16:17:20;20.90;;;10.52;;
71353;SDS011;59393;51.652;4.864;2022-11-14T16:19:46;22.85;;;11.70;;
71353;SDS011;59393;51.652;4.864;2022-11-14T16:22:14;21.60;;;9.40;;
71353;SDS011;59393;51.652;4.864;2022-11-14T16:24:41;21.87;;;10.77;;
71353;SDS011;59393;51.652;4.864;2022-11-14T16:27:07;22.45;;;10.50;;
71353;SDS011;59393;51.652;4.864;2022-11-14T16:29:33;22.67;;;11.85;;
71353;SDS011;59393;51.652;4.864;2022-11-14T16:31:59;25.02;;;12.65;;
71353;SDS011;59393;51.652;4.864;2022-11-14T16:34:25;21.47;;;12.13;;
71353;SDS011;59393;51.652;4.864;2022-11-14T16:36:58;21.95;;;11.18;;
71353;SDS011;59393;51.652;4.864;2022-11-14T16:39:25;21.52;;;11.70;;
71353;SDS011;59393;51.652;4.864;2022-11-14T16:41:51;23.13;;;11.93;;
71353;SDS011;59393;51.652;4.864;2022-11-14T16:44:17;20.75;;;9.90;;
71353;SDS011;59393;51.652;4.864;2022-11-14T16:46:43;21.57;;;10.77;;
71353;SDS011;59393;51.652;4.864;2022-11-14T16:49:13;19.45;;;9.88;;
71353;SDS011;59393;51.652;4.864;2022-11-14T16:51:40;22.35;;;10.20;;
71353;SDS011;59393;51.652;4.864;2022-11-14T16:54:09;25.33;;;10.05;;